Time;durP1;ratioP1;P1;durP2;ratioP2;P2;SDS_P1;SDS_P2;PMS_P1;PMS_P2;Temp;Humidity;BMP_temperature;BMP_pressure;BME280_temperature;BME280_humidity;BME280_pressure;Samples;Min_cycle;Max_cycle;Signal;HPM_P1;HPM_P2
2022/10/30 00:00:42;;;;;;;18.50;5.70;;;;;;;;;;5009083;28;20356;-66
2022/10/30 00:03:11;;;;;;;24.48;5.85;;;;;;;;;;5009994;28;20025;-66
2022/10/30 00:05:39;;;;;;;23.33;6.25;;;;;;;;;;5008821;28;20222;-66
2022/10/30 00:08:04;;;;;;;24.40;6.05;;;;;;;;;;5006211;28;20028;-66
2022/10/30 00:10:29;;;;;;;15.57;5.47;;;;;;;;;;5010641;28;20034;-66
2022/10/30 00:12:54;;;;;;;24.97;7.07;;;;;;;;;;5010862;28;21685;-66
2022/10/30 00:15:19;;;;;;;13.90;4.63;;;;;;;;;;5009503;28;20026;-66
2022/10/30 00:17:44;;;;;;;21.70;5.27;;;;;;;;;;5007330;28;20385;-66
2022/10/30 00:20:10;;;;;;;23.03;5.10;;;;;;;;;;5010113;28;20071;-66
2022/10/30 00:22:35;;;;;;;18.73;4.80;;;;;;;;;;5007407;28;20457;-66
2022/10/30 00:25:01;;;;;;;14.63;5.50;;;;;;;;;;5009394;28;20053;-66
2022/10/30 00:27:26;;;;;;;11.35;4.38;;;;;;;;;;5011452;28;20496;-66
2022/10/30 00:29:52;;;;;;;18.52;4.65;;;;;;;;;;5009033;28;20062;-66
2022/10/30 00:32:17;;;;;;;16.97;4.67;;;;;;;;;;5004658;28;20446;-66
2022/10/30 00:34:42;;;;;;;23.77;5.43;;;;;;;;;;5006011;28;20287;-66
2022/10/30 00:37:07;;;;;;;16.57;5.10;;;;;;;;;;5004232;28;20285;-66
2022/10/30 00:39:32;;;;;;;17.90;4.97;;;;;;;;;;5013766;28;20382;-66
2022/10/30 00:41:57;;;;;;;18.30;5.30;;;;;;;;;;5006997;28;20351;-66
2022/10/30 00:44:49;;;;;;;17.23;5.23;;;;;;;;;;5007694;28;20367;-66
2022/10/30 00:47:14;;;;;;;17.27;5.82;;;;;;;;;;5006224;28;20292;-66
2022/10/30 00:49:46;;;;;;;14.43;4.47;;;;;;;;;;5007632;28;20026;-66
2022/10/30 00:52:11;;;;;;;23.70;4.45;;;;;;;;;;5003993;28;20311;-66
2022/10/30 00:54:36;;;;;;;14.52;5.35;;;;;;;;;;5007673;28;20022;-66
2022/10/30 00:57:04;;;;;;;23.13;4.65;;;;;;;;;;5008754;28;20026;-66
2022/10/30 00:59:31;;;;;;;14.20;5.00;;;;;;;;;;5006304;28;20027;-66
2022/10/30 01:01:56;;;;;;;17.17;5.13;;;;;;;;;;5007688;28;20398;-66
2022/10/30 01:04:22;;;;;;;18.08;5.53;;;;;;;;;;5009741;28;20017;-66
2022/10/30 01:06:50;;;;;;;22.23;5.85;;;;;;;;;;5008717;28;20036;-66
2022/10/30 01:09:16;;;;;;;15.80;5.65;;;;;;;;;;5006856;28;20028;-66
2022/10/30 01:11:41;;;;;;;20.15;5.93;;;;;;;;;;5013068;28;20022;-66
2022/10/30 01:14:08;;;;;;;16.40;5.23;;;;;;;;;;5006977;28;20037;-66
2022/10/30 01:16:52;;;;;;;19.02;6.60;;;;;;;;;;5008757;28;20022;-66
2022/10/30 01:19:23;;;;;;;16.90;5.25;;;;;;;;;;5006575;28;20022;-66
2022/10/30 01:22:05;;;;;;;25.83;5.78;;;;;;;;;;5009994;28;20040;-66
2022/10/30 01:24:38;;;;;;;13.43;4.57;;;;;;;;;;5006303;28;20022;-66
2022/10/30 01:27:06;;;;;;;18.42;6.65;;;;;;;;;;5007663;28;20467;-66
2022/10/30 01:29:54;;;;;;;16.02;6.15;;;;;;;;;;5006378;28;20542;-66
2022/10/30 01:32:33;;;;;;;19.17;6.28;;;;;;;;;;5003439;28;20026;-66
2022/10/30 01:35:07;;;;;;;14.82;5.28;;;;;;;;;;5008297;28;20028;-66
2022/10/30 01:37:35;;;;;;;15.80;4.80;;;;;;;;;;5009119;28;20035;-66
2022/10/30 01:40:07;;;;;;;16.40;4.72;;;;;;;;;;5009889;28;20083;-66
2022/10/30 01:42:51;;;;;;;11.25;5.88;;;;;;;;;;5005434;28;20056;-66
2022/10/30 01:45:37;;;;;;;18.20;6.53;;;;;;;;;;5010861;28;20025;-66
2022/10/30 01:48:17;;;;;;;15.23;5.20;;;;;;;;;;4973377;28;20036;-66
2022/10/30 01:51:00;;;;;;;16.60;5.60;;;;;;;;;;5011898;28;20029;-66
2022/10/30 01:53:44;;;;;;;14.60;4.97;;;;;;;;;;5005468;28;20022;-66
2022/10/30 01:56:09;;;;;;;25.17;5.15;;;;;;;;;;5011921;28;20029;-66
2022/10/30 01:58:40;;;;;;;22.43;4.80;;;;;;;;;;5011348;28;20081;-66
2022/10/30 02:01:06;;;;;;;21.67;4.97;;;;;;;;;;5010420;28;20379;-66
2022/10/30 02:03:31;;;;;;;20.70;5.80;;;;;;;;;;5010085;28;20017;-66
2022/10/30 02:05:56;;;;;;;14.07;4.87;;;;;;;;;;5012004;28;20417;-66
2022/10/30 02:08:22;;;;;;;17.75;5.32;;;;;;;;;;5013265;28;20280;-66
2022/10/30 02:10:48;;;;;;;20.83;5.50;;;;;;;;;;5010709;28;20030;-66
2022/10/30 02:13:13;;;;;;;18.63;5.65;;;;;;;;;;5010620;28;20272;-66
2022/10/30 02:15:39;;;;;;;17.80;5.47;;;;;;;;;;5011914;28;20067;-64
2022/10/30 02:18:05;;;;;;;23.40;5.53;;;;;;;;;;5009586;28;20024;-66
2022/10/30 02:20:30;;;;;;;20.13;6.30;;;;;;;;;;5016565;28;20026;-66
2022/10/30 02:22:55;;;;;;;20.70;5.63;;;;;;;;;;5034252;23;20132;-66
2022/10/30 02:25:21;;;;;;;22.45;5.78;;;;;;;;;;5011736;28;20101;-66
2022/10/30 02:27:46;;;;;;;17.42;6.65;;;;;;;;;;5012448;28;20048;-67
2022/10/30 02:30:11;;;;;;;17.48;5.82;;;;;;;;;;5010246;28;20021;-66
2022/10/30 02:32:36;;;;;;;24.38;5.80;;;;;;;;;;5016371;28;20017;-67
2022/10/30 02:35:02;;;;;;;18.25;5.72;;;;;;;;;;5027725;28;20472;-66
2022/10/30 02:37:27;;;;;;;14.60;6.28;;;;;;;;;;5030427;28;20370;-66
2022/10/30 02:39:52;;;;;;;14.85;6.05;;;;;;;;;;5026512;28;20022;-69
2022/10/30 02:42:17;;;;;;;17.27;4.90;;;;;;;;;;5030184;28;20029;-66
2022/10/30 02:44:43;;;;;;;25.80;6.60;;;;;;;;;;5025505;28;20033;-68
2022/10/30 02:47:08;;;;;;;12.87;4.67;;;;;;;;;;5028773;28;20371;-66
2022/10/30 02:49:33;;;;;;;18.93;5.30;;;;;;;;;;5030681;28;20755;-69
2022/10/30 02:51:58;;;;;;;18.17;5.17;;;;;;;;;;5024686;28;20277;-66
2022/10/30 02:54:24;;;;;;;13.98;5.03;;;;;;;;;;5029591;28;20674;-67
2022/10/30 02:56:50;;;;;;;11.70;4.80;;;;;;;;;;5025262;28;20100;-69
2022/10/30 02:59:15;;;;;;;23.83;6.47;;;;;;;;;;5027356;28;20155;-71
2022/10/30 03:01:40;;;;;;;18.00;5.37;;;;;;;;;;5027850;28;20119;-66
2022/10/30 03:04:05;;;;;;;15.77;5.50;;;;;;;;;;5028699;28;20326;-67
2022/10/30 03:06:30;;;;;;;23.33;5.63;;;;;;;;;;5028911;28;20771;-66
2022/10/30 03:08:55;;;;;;;10.10;5.27;;;;;;;;;;5027609;28;20298;-67
2022/10/30 03:11:21;;;;;;;19.63;6.03;;;;;;;;;;5021372;28;20278;-66
2022/10/30 03:13:46;;;;;;;19.88;5.78;;;;;;;;;;5024532;28;20457;-66
2022/10/30 03:16:13;;;;;;;25.00;7.20;;;;;;;;;;5022934;28;20044;-66
2022/10/30 03:18:38;;;;;;;17.35;6.03;;;;;;;;;;5028306;28;20031;-67
2022/10/30 03:21:05;;;;;;;16.23;4.85;;;;;;;;;;5019546;28;20026;-68
2022/10/30 03:23:30;;;;;;;16.90;5.57;;;;;;;;;;5027330;28;20067;-66
2022/10/30 03:25:56;;;;;;;22.38;6.05;;;;;;;;;;5027689;28;20064;-67
2022/10/30 03:28:21;;;;;;;35.75;6.13;;;;;;;;;;5027375;28;20029;-66
2022/10/30 03:30:47;;;;;;;16.98;5.72;;;;;;;;;;5028902;28;20079;-66
2022/10/30 03:33:12;;;;;;;17.67;6.22;;;;;;;;;;5023742;28;20040;-69
2022/10/30 03:35:37;;;;;;;15.57;5.78;;;;;;;;;;5025862;28;20040;-68
2022/10/30 03:38:02;;;;;;;17.00;6.10;;;;;;;;;;5025499;28;20031;-67
2022/10/30 03:40:28;;;;;;;20.50;6.93;;;;;;;;;;5023662;28;20352;-68
2022/10/30 03:42:53;;;;;;;18.93;5.93;;;;;;;;;;5024117;28;20260;-68
2022/10/30 03:45:18;;;;;;;15.53;5.30;;;;;;;;;;5022302;28;20368;-66
2022/10/30 03:47:43;;;;;;;17.63;5.33;;;;;;;;;;5028965;28;20272;-67
2022/10/30 03:50:08;;;;;;;11.80;5.13;;;;;;;;;;5028414;28;20137;-66
2022/10/30 03:52:34;;;;;;;19.05;7.15;;;;;;;;;;5027469;28;20108;-67
2022/10/30 03:54:59;;;;;;;11.47;5.23;;;;;;;;;;5022701;28;20108;-67
2022/10/30 03:57:24;;;;;;;21.88;5.82;;;;;;;;;;5029290;28;20284;-67
2022/10/30 03:59:49;;;;;;;15.47;5.50;;;;;;;;;;5027416;28;20017;-66
2022/10/30 04:02:15;;;;;;;16.52;5.25;;;;;;;;;;5028026;28;20711;-66
2022/10/30 04:04:40;;;;;;;18.83;6.00;;;;;;;;;;5021690;28;20079;-68
2022/10/30 04:07:05;;;;;;;16.27;5.43;;;;;;;;;;5021974;28;20364;-68
2022/10/30 04:09:30;;;;;;;23.70;6.10;;;;;;;;;;5021472;28;20294;-66
2022/10/30 04:11:55;;;;;;;26.13;5.83;;;;;;;;;;5022577;28;20309;-67
2022/10/30 04:14:20;;;;;;;27.20;7.20;;;;;;;;;;5022846;28;20042;-67
2022/10/30 04:16:46;;;;;;;13.10;5.13;;;;;;;;;;5028393;28;20759;-71
2022/10/30 04:19:11;;;;;;;17.57;5.63;;;;;;;;;;5025586;28;20277;-67
2022/10/30 04:21:37;;;;;;;14.57;5.27;;;;;;;;;;5028535;28;20272;-66
2022/10/30 04:24:02;;;;;;;20.95;5.50;;;;;;;;;;5028968;28;20310;-67
2022/10/30 04:26:27;;;;;;;23.23;6.70;;;;;;;;;;5026006;28;20032;-68
2022/10/30 04:28:52;;;;;;;16.93;5.60;;;;;;;;;;5029874;28;20075;-66
2022/10/30 04:31:18;;;;;;;17.33;5.93;;;;;;;;;;5028294;28;20295;-68
2022/10/30 04:33:43;;;;;;;16.10;5.67;;;;;;;;;;5027646;28;20151;-67
2022/10/30 04:36:08;;;;;;;19.77;5.90;;;;;;;;;;5024752;28;20648;-68
2022/10/30 04:38:33;;;;;;;21.67;6.32;;;;;;;;;;5028073;28;20545;-67
2022/10/30 04:40:58;;;;;;;19.10;5.30;;;;;;;;;;5022614;28;20044;-68
2022/10/30 04:43:24;;;;;;;14.40;6.47;;;;;;;;;;5028326;28;20032;-67
2022/10/30 04:45:49;;;;;;;19.35;6.28;;;;;;;;;;5028249;28;20672;-68
2022/10/30 04:48:15;;;;;;;25.23;5.90;;;;;;;;;;5028342;28;20095;-67
2022/10/30 04:50:41;;;;;;;28.95;6.07;;;;;;;;;;5025239;28;20116;-67
2022/10/30 04:53:09;;;;;;;18.73;7.18;;;;;;;;;;5023119;28;20115;-69
2022/10/30 04:55:34;;;;;;;29.30;7.35;;;;;;;;;;5028320;28;20072;-67
2022/10/30 04:58:01;;;;;;;26.10;6.72;;;;;;;;;;5022370;28;20527;-68
2022/10/30 05:00:27;;;;;;;22.50;5.63;;;;;;;;;;5026444;28;20028;-67
2022/10/30 05:02:52;;;;;;;29.73;6.82;;;;;;;;;;5023194;28;20405;-67
2022/10/30 05:05:18;;;;;;;20.35;5.10;;;;;;;;;;5022830;28;20033;-68
2022/10/30 05:07:43;;;;;;;16.65;6.20;;;;;;;;;;5026226;28;20523;-67
2022/10/30 05:10:17;;;;;;;23.38;6.68;;;;;;;;;;5028856;28;20021;-68
2022/10/30 05:12:43;;;;;;;17.02;5.80;;;;;;;;;;5022341;28;20022;-67
2022/10/30 05:15:08;;;;;;;24.40;6.50;;;;;;;;;;5028835;28;20032;-67
2022/10/30 05:17:34;;;;;;;22.27;6.88;;;;;;;;;;5028285;28;20021;-68
2022/10/30 05:19:59;;;;;;;21.58;7.40;;;;;;;;;;5030731;28;20029;-68
2022/10/30 05:22:24;;;;;;;18.08;6.15;;;;;;;;;;5028906;28;20065;-68
2022/10/30 05:24:49;;;;;;;13.37;6.00;;;;;;;;;;5033119;28;20041;-67
2022/10/30 05:27:14;;;;;;;22.20;7.47;;;;;;;;;;5028174;28;20754;-67
2022/10/30 05:29:40;;;;;;;24.65;6.32;;;;;;;;;;5026899;28;20271;-67
2022/10/30 05:32:05;;;;;;;28.30;6.87;;;;;;;;;;5023870;28;20406;-67
2022/10/30 05:34:30;;;;;;;23.90;7.20;;;;;;;;;;5030966;28;20351;-68
2022/10/30 05:36:55;;;;;;;26.47;7.10;;;;;;;;;;5031593;28;20734;-67
2022/10/30 05:39:20;;;;;;;23.90;6.88;;;;;;;;;;5029018;28;20263;-69
2022/10/30 05:41:45;;;;;;;16.13;6.30;;;;;;;;;;5026819;28;20017;-67
2022/10/30 05:44:11;;;;;;;31.27;6.85;;;;;;;;;;5033372;28;20826;-68
2022/10/30 05:46:36;;;;;;;24.23;6.27;;;;;;;;;;5030351;28;20025;-67
2022/10/30 05:49:01;;;;;;;16.55;6.40;;;;;;;;;;5029735;28;20268;-67
2022/10/30 05:51:26;;;;;;;13.17;5.80;;;;;;;;;;5028875;28;20482;-67
2022/10/30 05:53:51;;;;;;;20.03;6.33;;;;;;;;;;5032682;28;20371;-67
2022/10/30 05:56:16;;;;;;;21.50;6.20;;;;;;;;;;5028407;28;20292;-67
2022/10/30 05:58:42;;;;;;;24.67;5.53;;;;;;;;;;5025915;28;20283;-67
2022/10/30 06:01:07;;;;;;;31.93;7.23;;;;;;;;;;5030684;28;20279;-67
2022/10/30 06:03:32;;;;;;;29.05;6.38;;;;;;;;;;5023772;28;20276;-67
2022/10/30 06:05:57;;;;;;;26.02;6.03;;;;;;;;;;5028812;28;20508;-69
2022/10/30 06:08:23;;;;;;;19.73;7.53;;;;;;;;;;5027271;28;20021;-69
2022/10/30 06:10:48;;;;;;;25.03;7.63;;;;;;;;;;5020220;28;20387;-70
2022/10/30 06:13:13;;;;;;;14.87;6.20;;;;;;;;;;5022984;28;20294;-67
2022/10/30 06:15:38;;;;;;;20.13;7.00;;;;;;;;;;5025253;28;20288;-70
2022/10/30 06:18:03;;;;;;;15.80;6.63;;;;;;;;;;5027475;28;20280;-68
2022/10/30 06:20:29;;;;;;;16.33;5.88;;;;;;;;;;5027382;28;20017;-67
2022/10/30 06:23:04;;;;;;;17.13;5.38;;;;;;;;;;5026036;28;20037;-67
2022/10/30 06:25:30;;;;;;;21.45;6.22;;;;;;;;;;5024732;28;20078;-68
2022/10/30 06:27:56;;;;;;;37.65;6.68;;;;;;;;;;5024579;28;20021;-67
2022/10/30 06:30:22;;;;;;;20.70;6.95;;;;;;;;;;5027384;28;20065;-68
2022/10/30 06:32:48;;;;;;;22.90;6.40;;;;;;;;;;5021345;28;20067;-67
2022/10/30 06:35:13;;;;;;;24.27;6.20;;;;;;;;;;5019658;28;20033;-67
2022/10/30 06:37:43;;;;;;;19.63;5.78;;;;;;;;;;5024155;28;20040;-67
2022/10/30 06:40:09;;;;;;;20.92;6.78;;;;;;;;;;5029480;28;20032;-68
2022/10/30 06:42:40;;;;;;;20.20;6.22;;;;;;;;;;5015756;28;20025;-68
2022/10/30 06:45:06;;;;;;;13.00;6.38;;;;;;;;;;5021428;28;20026;-67
2022/10/30 06:47:33;;;;;;;21.27;7.10;;;;;;;;;;5023913;28;20040;-68
2022/10/30 06:49:58;;;;;;;19.38;6.45;;;;;;;;;;5023607;28;20021;-67
2022/10/30 06:52:23;;;;;;;22.37;6.90;;;;;;;;;;5022825;28;20486;-67
2022/10/30 06:54:49;;;;;;;16.40;5.97;;;;;;;;;;5022940;28;20334;-68
2022/10/30 06:57:14;;;;;;;15.40;6.43;;;;;;;;;;5022230;28;20768;-67
2022/10/30 06:59:39;;;;;;;24.13;7.93;;;;;;;;;;5017050;28;20323;-68
2022/10/30 07:02:04;;;;;;;18.63;6.70;;;;;;;;;;5022710;28;20764;-67
2022/10/30 07:04:30;;;;;;;25.50;8.57;;;;;;;;;;5023885;28;20022;-68
2022/10/30 07:06:55;;;;;;;23.40;8.17;;;;;;;;;;5020580;28;20084;-67
2022/10/30 07:09:20;;;;;;;18.30;7.03;;;;;;;;;;5026022;28;20356;-69
2022/10/30 07:11:45;;;;;;;17.53;6.23;;;;;;;;;;5018298;28;20275;-67
2022/10/30 07:14:11;;;;;;;14.07;5.97;;;;;;;;;;5023792;28;20358;-68
2022/10/30 07:16:36;;;;;;;21.77;6.75;;;;;;;;;;5025043;28;20337;-70
2022/10/30 07:19:01;;;;;;;15.85;6.10;;;;;;;;;;5027862;28;20045;-67
2022/10/30 07:21:26;;;;;;;15.20;6.30;;;;;;;;;;5023854;28;20023;-68
2022/10/30 07:23:52;;;;;;;28.97;5.60;;;;;;;;;;5023665;28;20148;-67
2022/10/30 07:26:17;;;;;;;15.57;6.03;;;;;;;;;;5025938;28;20275;-68
2022/10/30 07:28:42;;;;;;;16.13;5.63;;;;;;;;;;5023214;28;20765;-67
2022/10/30 07:31:07;;;;;;;20.37;5.70;;;;;;;;;;5025714;28;20025;-67
2022/10/30 07:33:32;;;;;;;16.27;7.35;;;;;;;;;;5026819;28;20745;-70
2022/10/30 07:36:01;;;;;;;15.43;5.87;;;;;;;;;;5024455;28;20033;-67
2022/10/30 07:38:26;;;;;;;18.48;5.07;;;;;;;;;;5024223;28;20039;-67
2022/10/30 07:40:52;;;;;;;14.25;5.45;;;;;;;;;;5029038;28;20021;-69
2022/10/30 07:43:17;;;;;;;24.25;7.35;;;;;;;;;;5020337;28;20045;-69
2022/10/30 07:45:43;;;;;;;18.40;6.17;;;;;;;;;;5022614;28;20502;-68
2022/10/30 07:48:08;;;;;;;14.15;5.20;;;;;;;;;;5027785;28;20659;-68
2022/10/30 07:50:34;;;;;;;19.70;5.63;;;;;;;;;;5019760;28;20104;-68
2022/10/30 07:52:59;;;;;;;19.30;6.47;;;;;;;;;;5023370;28;20025;-67
2022/10/30 07:55:24;;;;;;;11.68;4.97;;;;;;;;;;5026652;28;20773;-71
2022/10/30 07:57:49;;;;;;;16.97;5.43;;;;;;;;;;5026435;28;20014;-68
2022/10/30 08:00:15;;;;;;;14.30;5.40;;;;;;;;;;5026294;28;20025;-68
2022/10/30 08:02:41;;;;;;;18.25;4.82;;;;;;;;;;5017589;28;20383;-68
2022/10/30 08:05:06;;;;;;;14.15;4.50;;;;;;;;;;5010532;28;20632;-68
2022/10/30 08:07:32;;;;;;;15.00;4.75;;;;;;;;;;5025378;28;20033;-69
2022/10/30 08:09:58;;;;;;;14.75;5.38;;;;;;;;;;5015961;28;20057;-70
2022/10/30 08:12:23;;;;;;;21.83;5.57;;;;;;;;;;5019734;28;20632;-70
2022/10/30 08:14:48;;;;;;;17.08;5.00;;;;;;;;;;5015825;28;20381;-68
2022/10/30 08:17:14;;;;;;;12.53;5.17;;;;;;;;;;5020887;28;20086;-68
2022/10/30 08:19:39;;;;;;;17.23;4.90;;;;;;;;;;5020436;28;20300;-68
2022/10/30 08:22:04;;;;;;;16.60;4.97;;;;;;;;;;5026894;28;20056;-70
2022/10/30 08:24:29;;;;;;;14.80;4.83;;;;;;;;;;5019922;28;20028;-69
2022/10/30 08:26:54;;;;;;;17.90;5.03;;;;;;;;;;5016940;28;20295;-69
2022/10/30 08:29:19;;;;;;;22.23;6.30;;;;;;;;;;5026866;28;20041;-70
2022/10/30 08:31:48;;;;;;;23.43;4.73;;;;;;;;;;5024981;28;20024;-67
2022/10/30 08:34:13;;;;;;;17.30;4.85;;;;;;;;;;5027027;28;20139;-70
2022/10/30 08:36:38;;;;;;;23.93;5.17;;;;;;;;;;5025266;28;20113;-68
2022/10/30 08:39:04;;;;;;;16.17;5.63;;;;;;;;;;5022382;28;20272;-70
2022/10/30 08:41:29;;;;;;;16.30;4.82;;;;;;;;;;5024872;28;20024;-69
2022/10/30 08:43:54;;;;;;;23.40;4.70;;;;;;;;;;5024157;28;20029;-67
2022/10/30 08:46:19;;;;;;;11.23;4.50;;;;;;;;;;5021941;28;20096;-67
2022/10/30 08:48:45;;;;;;;13.30;4.57;;;;;;;;;;5026020;28;20377;-66
2022/10/30 08:51:10;;;;;;;12.00;4.13;;;;;;;;;;5023840;28;20040;-66
2022/10/30 08:53:35;;;;;;;17.20;5.23;;;;;;;;;;5020338;28;20029;-65
2022/10/30 08:56:00;;;;;;;18.07;5.33;;;;;;;;;;5019056;28;20489;-66
2022/10/30 08:58:25;;;;;;;12.80;4.55;;;;;;;;;;5022341;28;20029;-65
2022/10/30 09:00:50;;;;;;;14.50;4.53;;;;;;;;;;5018180;28;20037;-66
2022/10/30 09:03:16;;;;;;;10.93;4.30;;;;;;;;;;5023376;28;20597;-65
2022/10/30 09:05:41;;;;;;;11.13;4.18;;;;;;;;;;5023186;28;20418;-66
2022/10/30 09:08:06;;;;;;;16.80;5.03;;;;;;;;;;5024009;28;20076;-66
2022/10/30 09:10:31;;;;;;;15.20;4.80;;;;;;;;;;5027654;28;20057;-66
2022/10/30 09:12:57;;;;;;;11.97;4.77;;;;;;;;;;5018498;28;20026;-66
2022/10/30 09:15:23;;;;;;;14.80;2.85;;;;;;;;;;5024788;28;20334;-65
2022/10/30 09:17:53;;;;;;;13.75;4.60;;;;;;;;;;5021108;28;20018;-65
2022/10/30 09:20:18;;;;;;;14.13;4.63;;;;;;;;;;5024925;28;20033;-68
2022/10/30 09:22:44;;;;;;;18.30;3.87;;;;;;;;;;5022809;28;20079;-68
2022/10/30 09:25:09;;;;;;;18.13;4.23;;;;;;;;;;5023440;28;20049;-68
2022/10/30 09:27:37;;;;;;;16.60;4.70;;;;;;;;;;5021389;28;20087;-68
2022/10/30 09:30:03;;;;;;;20.33;4.90;;;;;;;;;;5023441;28;20288;-68
2022/10/30 09:32:28;;;;;;;11.60;4.18;;;;;;;;;;5024928;28;20059;-68
2022/10/30 09:34:53;;;;;;;16.10;5.17;;;;;;;;;;5023413;28;20110;-68
2022/10/30 09:37:18;;;;;;;17.30;4.40;;;;;;;;;;5021936;28;20071;-68
2022/10/30 09:39:44;;;;;;;16.17;4.03;;;;;;;;;;5020650;28;20307;-68
2022/10/30 09:42:09;;;;;;;21.13;5.17;;;;;;;;;;5024845;28;20048;-68
2022/10/30 09:44:52;;;;;;;17.77;4.93;;;;;;;;;;5025192;28;20021;-68
2022/10/30 09:47:20;;;;;;;22.73;4.32;;;;;;;;;;5015276;28;20281;-68
2022/10/30 09:49:46;;;;;;;41.63;4.60;;;;;;;;;;5024695;28;20052;-68
2022/10/30 09:52:28;;;;;;;18.97;4.60;;;;;;;;;;5020473;28;20104;-68
2022/10/30 09:55:00;;;;;;;14.00;4.88;;;;;;;;;;5022092;28;20264;-67
2022/10/30 09:57:33;;;;;;;18.23;3.53;;;;;;;;;;5022145;28;20026;-68
2022/10/30 10:00:04;;;;;;;11.93;4.30;;;;;;;;;;5018664;28;20083;-68
2022/10/30 10:02:47;;;;;;;16.15;4.70;;;;;;;;;;5018479;28;20494;-68
2022/10/30 10:05:12;;;;;;;16.25;4.55;;;;;;;;;;5021009;28;20014;-68
2022/10/30 10:07:40;;;;;;;21.30;4.57;;;;;;;;;;5025916;28;20471;-68
2022/10/30 10:10:10;;;;;;;14.15;4.15;;;;;;;;;;5016336;28;20201;-68
2022/10/30 10:12:54;;;;;;;19.27;4.57;;;;;;;;;;5024079;28;20038;-68
2022/10/30 10:15:28;;;;;;;9.77;4.13;;;;;;;;;;5021144;28;20512;-68
2022/10/30 10:17:53;;;;;;;11.48;4.05;;;;;;;;;;5025073;28;20033;-68
2022/10/30 10:20:27;;;;;;;14.55;4.07;;;;;;;;;;5023712;28;20440;-68
2022/10/30 10:22:54;;;;;;;13.50;3.65;;;;;;;;;;5025855;28;20041;-68
2022/10/30 10:25:19;;;;;;;13.18;5.82;;;;;;;;;;5019394;28;20037;-68
2022/10/30 10:27:45;;;;;;;15.40;3.80;;;;;;;;;;5027593;28;20043;-68
2022/10/30 10:30:19;;;;;;;10.13;4.00;;;;;;;;;;5029400;28;20523;-69
2022/10/30 10:32:47;;;;;;;17.88;4.65;;;;;;;;;;5023494;28;20079;-68
2022/10/30 10:35:15;;;;;;;15.45;4.90;;;;;;;;;;5024172;28;20018;-68
2022/10/30 10:37:52;;;;;;;8.98;2.60;;;;;;;;;;5030107;28;20485;-71
2022/10/30 10:40:36;;;;;;;11.95;3.95;;;;;;;;;;5027267;28;20025;-72
2022/10/30 10:43:21;;;;;;;9.80;3.53;;;;;;;;;;5027172;28;20409;-71
2022/10/30 10:46:06;;;;;;;25.13;2.83;;;;;;;;;;5017996;28;20033;-73
2022/10/30 10:48:34;;;;;;;26.00;5.45;;;;;;;;;;5016121;28;20029;-71
2022/10/30 10:51:12;;;;;;;13.52;4.22;;;;;;;;;;5021162;28;20028;-68
2022/10/30 10:53:37;;;;;;;15.05;3.72;;;;;;;;;;5023018;28;20025;-68
2022/10/30 10:56:02;;;;;;;19.33;4.20;;;;;;;;;;5015682;28;20356;-68
2022/10/30 10:58:47;;;;;;;15.53;4.63;;;;;;;;;;5013530;28;20315;-68
2022/10/30 11:01:13;;;;;;;9.40;3.22;;;;;;;;;;5022947;28;20279;-69
2022/10/30 11:03:56;;;;;;;19.52;4.85;;;;;;;;;;5024390;28;20029;-68
2022/10/30 11:06:30;;;;;;;11.40;3.95;;;;;;;;;;5024035;28;20048;-68
2022/10/30 11:09:13;;;;;;;15.90;4.43;;;;;;;;;;5023509;28;20018;-68
2022/10/30 11:11:38;;;;;;;20.60;4.25;;;;;;;;;;5023797;28;20020;-68
2022/10/30 11:14:11;;;;;;;15.13;4.30;;;;;;;;;;5023920;28;20048;-68
2022/10/30 11:16:47;;;;;;;17.95;4.47;;;;;;;;;;5029701;28;20417;-68
2022/10/30 11:19:12;;;;;;;14.85;4.53;;;;;;;;;;5019639;28;20029;-68
2022/10/30 11:21:40;;;;;;;12.67;4.53;;;;;;;;;;5020907;28;20021;-68
2022/10/30 11:24:26;;;;;;;18.55;4.13;;;;;;;;;;5025997;28;20292;-68
2022/10/30 11:26:52;;;;;;;19.50;5.10;;;;;;;;;;5020789;28;20387;-68
2022/10/30 11:29:21;;;;;;;7.63;2.95;;;;;;;;;;5026265;28;20025;-68
2022/10/30 11:31:57;;;;;;;12.40;4.10;;;;;;;;;;5023137;28;20104;-68
2022/10/30 11:34:31;;;;;;;18.90;3.92;;;;;;;;;;5028071;28;20036;-68
2022/10/30 11:36:57;;;;;;;19.27;3.45;;;;;;;;;;5024076;28;20025;-68
2022/10/30 11:39:26;;;;;;;10.93;3.60;;;;;;;;;;5027932;28;20076;-68
2022/10/30 11:42:05;;;;;;;12.93;4.60;;;;;;;;;;5022662;28;20343;-68
2022/10/30 11:44:35;;;;;;;11.88;3.90;;;;;;;;;;5028465;28;20021;-68
2022/10/30 11:47:01;;;;;;;15.60;5.30;;;;;;;;;;5022240;28;20486;-68
2022/10/30 11:49:45;;;;;;;24.13;4.30;;;;;;;;;;5022612;28;20043;-68
2022/10/30 11:52:11;;;;;;;13.38;3.50;;;;;;;;;;5019830;28;20058;-67
2022/10/30 11:54:40;;;;;;;10.93;2.30;;;;;;;;;;5019256;28;20076;-69
2022/10/30 11:57:24;;;;;;;17.83;3.90;;;;;;;;;;5021622;28;20025;-68
2022/10/30 11:59:52;;;;;;;5.78;2.72;;;;;;;;;;5019947;28;20028;-67
2022/10/30 12:02:23;;;;;;;16.83;4.38;;;;;;;;;;5027457;28;20075;-68
2022/10/30 12:04:49;;;;;;;11.57;2.78;;;;;;;;;;5022938;28;20025;-68
2022/10/30 12:07:28;;;;;;;8.85;2.95;;;;;;;;;;5026140;28;20120;-68
2022/10/30 12:09:53;;;;;;;13.82;3.13;;;;;;;;;;5020048;28;20485;-68
2022/10/30 12:12:23;;;;;;;16.08;2.47;;;;;;;;;;5023308;28;20037;-68
2022/10/30 12:14:49;;;;;;;14.27;2.78;;;;;;;;;;5026352;28;20098;-68
2022/10/30 12:17:15;;;;;;;14.60;3.63;;;;;;;;;;5025981;28;20057;-68
2022/10/30 12:19:52;;;;;;;16.02;3.47;;;;;;;;;;5023409;28;20047;-67
2022/10/30 12:22:25;;;;;;;16.65;3.10;;;;;;;;;;5020552;28;20091;-68
2022/10/30 12:24:51;;;;;;;13.27;3.67;;;;;;;;;;5019502;28;20032;-68
2022/10/30 12:27:16;;;;;;;16.83;3.15;;;;;;;;;;5023035;28;20038;-68
2022/10/30 12:30:20;;;;;;;17.90;3.65;;;;;;;;;;5022100;28;20049;-68
2022/10/30 12:32:51;;;;;;;11.75;4.72;;;;;;;;;;4984580;28;20026;-68
2022/10/30 12:35:34;;;;;;;10.60;3.95;;;;;;;;;;4982721;28;20045;-68
2022/10/30 12:38:01;;;;;;;13.00;3.25;;;;;;;;;;5008453;28;20026;-68
2022/10/30 12:40:29;;;;;;;17.42;4.03;;;;;;;;;;5021503;28;20540;-68
2022/10/30 12:42:58;;;;;;;16.23;3.92;;;;;;;;;;5026510;28;20493;-68
2022/10/30 12:45:29;;;;;;;31.08;3.17;;;;;;;;;;5025873;28;20048;-67
2022/10/30 12:47:58;;;;;;;15.70;3.35;;;;;;;;;;5025650;28;20482;-68
2022/10/30 12:50:25;;;;;;;19.70;4.45;;;;;;;;;;5024716;28;20461;-67
2022/10/30 12:52:59;;;;;;;16.08;3.80;;;;;;;;;;5018035;28;20045;-68
2022/10/30 12:55:28;;;;;;;19.90;8.55;;;;;;;;;;5022116;28;20041;-67
2022/10/30 12:57:54;;;;;;;10.38;3.25;;;;;;;;;;5027444;28;20104;-68
2022/10/30 13:00:19;;;;;;;24.60;4.18;;;;;;;;;;5024978;28;20433;-68
2022/10/30 13:02:56;;;;;;;20.38;5.00;;;;;;;;;;5020948;28;20013;-68
2022/10/30 13:05:24;;;;;;;34.35;4.53;;;;;;;;;;5027020;28;20092;-68
2022/10/30 13:07:56;;;;;;;14.68;4.20;;;;;;;;;;5028215;28;20045;-68
2022/10/30 13:10:26;;;;;;;18.73;3.85;;;;;;;;;;5027178;28;20036;-67
2022/10/30 13:12:53;;;;;;;;;;;;;;;;;;5025140;28;20076;-68
2022/10/30 13:15:18;;;;;;;15.65;3.85;;;;;;;;;;5023919;28;20329;-67
2022/10/30 13:17:43;;;;;;;15.70;3.13;;;;;;;;;;5022938;28;20025;-67
2022/10/30 13:20:13;;;;;;;13.57;3.73;;;;;;;;;;5021442;28;20040;-67
2022/10/30 13:22:50;;;;;;;6.75;2.78;;;;;;;;;;5018663;28;20148;-67
2022/10/30 13:25:21;;;;;;;31.10;5.30;;;;;;;;;;5021607;28;20036;-68
2022/10/30 13:27:52;;;;;;;20.33;3.67;;;;;;;;;;5023917;28;20151;-67
2022/10/30 13:30:22;;;;;;;7.28;2.58;;;;;;;;;;5026266;28;20033;-68
2022/10/30 13:33:05;;;;;;;11.68;3.72;;;;;;;;;;5021701;28;20029;-71
2022/10/30 13:35:43;;;;;;;14.93;3.60;;;;;;;;;;5024124;28;20018;-67
2022/10/30 13:38:17;;;;;;;13.52;3.75;;;;;;;;;;5017057;28;20288;-70
2022/10/30 13:40:42;;;;;;;15.38;3.28;;;;;;;;;;5025762;28;20037;-67
2022/10/30 13:43:26;;;;;;;15.50;3.90;;;;;;;;;;5021866;28;20024;-67
2022/10/30 13:46:08;;;;;;;12.50;4.20;;;;;;;;;;5026517;28;20367;-70
2022/10/30 13:48:52;;;;;;;17.55;3.60;;;;;;;;;;5022097;28;20035;-70
2022/10/30 13:51:25;;;;;;;11.35;3.50;;;;;;;;;;5028241;28;20025;-69
2022/10/30 13:54:06;;;;;;;10.32;3.17;;;;;;;;;;5025105;28;20543;-66
2022/10/30 13:56:32;;;;;;;15.55;4.47;;;;;;;;;;5026999;28;20119;-68
2022/10/30 13:59:04;;;;;;;22.23;3.45;;;;;;;;;;5028986;28;21602;-67
2022/10/30 14:01:55;;;;;;;13.75;3.22;;;;;;;;;;5025055;28;20024;-67
2022/10/30 14:04:37;;;;;;;16.15;3.75;;;;;;;;;;5024729;28;20070;-66
2022/10/30 14:07:14;;;;;;;11.95;3.80;;;;;;;;;;5024132;28;20029;-70
2022/10/30 14:09:42;;;;;;;14.95;3.28;;;;;;;;;;5028467;28;20485;-67
2022/10/30 14:12:26;;;;;;;8.63;3.10;;;;;;;;;;5027717;28;20034;-66
2022/10/30 14:14:51;;;;;;;9.85;2.97;;;;;;;;;;5028506;28;20021;-67
2022/10/30 14:17:16;;;;;;;17.27;3.40;;;;;;;;;;5031064;28;20130;-70
2022/10/30 14:20:00;;;;;;;15.25;3.05;;;;;;;;;;5029900;28;20014;-69
2022/10/30 14:22:25;;;;;;;12.15;3.00;;;;;;;;;;5026140;28;20036;-67
2022/10/30 14:24:50;;;;;;;11.35;2.90;;;;;;;;;;5025428;28;20425;-69
2022/10/30 14:27:20;;;;;;;20.47;3.60;;;;;;;;;;5026972;28;20068;-67
2022/10/30 14:29:49;;;;;;;7.93;3.23;;;;;;;;;;5026464;28;20630;-70
2022/10/30 14:32:14;;;;;;;10.07;3.63;;;;;;;;;;5031290;28;20276;-67
2022/10/30 14:34:48;;;;;;;12.03;2.93;;;;;;;;;;5030421;28;20022;-69
2022/10/30 14:37:15;;;;;;;11.63;3.92;;;;;;;;;;5027839;28;20059;-68